Ana Sayfa
METAR-TAF:

METAR-TAF

Havaalanları :

Elista Havalimanı

Elista, Rusya

Enlem: 46-22N, Boylam: 044-20E, yükseklik: 150 m

Güncel hava durumu gözlemi

Rapor saat 17:30 UTC de 27 dakika önce yapıldı.
Rüzgar kuzeydoğudan 16 kt
Sıcaklık 25°C
Nem 36%
Basınç 1014 hPa
Görüş mesafesi 10 km veya daha fazla

METAR: URWI 181730Z AUTO 04008MPS 9999 // ///110/// 25/09 Q1014

Saat: 20:57 (17:57 UTC)

Tahmin

Rapor saat 11:00 UTC de 6 saat ve 57 dakika önce yapıldı.
Ayın 18'si saat 12 UTC'den ayın 18'si saat 21 UTC'ye kadar geçerli Tahmin
Rüzgar kuzey/kuzeydoğudan 14 kt ve 23 kt'a kadar ani rüzgarlar
Görüş mesafesi 10 km veya daha fazla
3000 ft yükseklikte parçalı bulutlu, Kümülonimbus.
Geçici
ayın 18'si saat 12 UTC'den ayın 18'si saat 21 UTC'ye kadar
Rüzgar kuzeydoğudan 19 kt ve 29 kt'a kadar ani rüzgarlar

TAF: URWI 181100Z 1812/1821 02007G12MPS 9999 SCT030CB TEMPO 1812/1821 04010G15MPS

4.000'den fazla havaalanı için hava durumu gözlemleri ve tahminleri (METAR ve TAF raporları).

Kullanılabilir istasyonlar harita üzerinde sarı ve kırmızı noktalarla gösterilir.

İstasyonun adını görmek için fareyi noktanın üzerinde gezdirin.

Sonrasında hava gözlem ve tahminlerini görmek için tıklayın.

Haritayı değiştirmek için: yaklaştırmak için siyah artı işaretli yeşil düğmeye ve uzaklaştırmak için de eksi işaretli düğmeye hızla tıklayın; bitişik haritalar için yeşil okları kullanın.


METAR-TAF: